< < Back
Terminal Aerodrome Forecast


Current Version              Previous Versions:   1  2  3  4  5  6  7  8  9  

Terminal Aerodrome Forecast

820
FTUS42 KMLB 301730
TAFDAB
TAF
KDAB 301730Z 3018/3118 23007KT P6SM SKC
     FM310200 28004KT P6SM SCT050 SCT250=

Latest METAR

331
SAUS80 KWBC 310800
MTRDAB
METAR KDAB 310753Z 24005KT 10SM CLR 14/13 A3013 RMK AO2 SLP202
T01390128


USA.gov is the U.S. government's official web portal to all federal, state and local government web resources and services.